createdAt,value
2023-01-31T00:01:41.005Z,3.35
2023-01-31T00:05:43.860Z,3.63
2023-01-31T00:09:46.623Z,3.13
2023-01-31T00:13:50.067Z,3.25
2023-01-31T00:17:52.889Z,2.53
2023-01-31T00:21:55.660Z,3.33
2023-01-31T00:26:08.415Z,3.80
2023-01-31T00:30:12.271Z,3.03
2023-01-31T00:34:15.234Z,3.53
2023-01-31T00:38:20.081Z,3.05
2023-01-31T00:42:22.870Z,3.75
2023-01-31T00:46:26.264Z,3.03
2023-01-31T00:50:29.115Z,2.78
2023-01-31T00:54:32.070Z,2.70
2023-01-31T00:58:35.889Z,3.65
2023-01-31T01:02:39.858Z,3.70
2023-01-31T01:06:43.186Z,3.00
2023-01-31T01:10:47.911Z,3.22
2023-01-31T01:14:50.667Z,3.15
2023-01-31T01:18:55.327Z,3.25
2023-01-31T01:22:59.752Z,3.00
2023-01-31T01:27:05.032Z,2.63
2023-01-31T01:31:10.154Z,3.83
2023-01-31T01:35:13.070Z,3.50
2023-01-31T01:39:17.132Z,2.92
2023-01-31T01:43:20.304Z,3.08
2023-01-31T01:47:52.856Z,3.10
2023-01-31T01:52:00.291Z,3.75
2023-01-31T01:56:11.338Z,3.65
2023-01-31T02:00:16.388Z,4.10
2023-01-31T02:04:23.433Z,3.63
2023-01-31T02:08:36.160Z,3.45
2023-01-31T02:12:39.584Z,3.80
2023-01-31T02:16:42.405Z,3.40
2023-01-31T02:21:17.642Z,2.63
2023-01-31T02:25:54.910Z,3.30
2023-01-31T02:30:26.498Z,4.38
2023-01-31T02:34:48.287Z,3.47
2023-01-31T02:39:12.252Z,3.40
2023-01-31T02:44:01.413Z,3.00
2023-01-31T02:48:23.155Z,3.83
2023-01-31T02:52:53.417Z,4.18
2023-01-31T02:56:56.416Z,3.50
2023-01-31T03:01:04.086Z,3.75
2023-01-31T03:05:07.412Z,3.55
2023-01-31T03:09:21.997Z,3.17
2023-01-31T03:13:46.919Z,2.78
2023-01-31T03:18:07.330Z,3.42
2023-01-31T03:22:24.762Z,2.85
2023-01-31T03:26:28.641Z,4.18
2023-01-31T03:30:41.178Z,4.97
2023-01-31T03:34:44.305Z,5.45
2023-01-31T03:39:11.599Z,4.35
2023-01-31T03:43:21.099Z,4.60
2023-01-31T03:47:30.866Z,4.28
2023-01-31T03:51:36.927Z,7.78
2023-01-31T03:55:52.420Z,8.82
2023-01-31T03:59:59.328Z,8.57
2023-01-31T04:04:12.397Z,7.35
2023-01-31T04:08:16.572Z,7.72
2023-01-31T04:12:24.800Z,6.88
2023-01-31T04:16:27.649Z,5.32
2023-01-31T04:20:30.744Z,5.70
2023-01-31T04:24:33.842Z,4.55
2023-01-31T04:28:36.743Z,4.43
2023-01-31T04:32:39.554Z,5.63
2023-01-31T04:36:42.861Z,4.93
2023-01-31T04:40:45.834Z,5.63
2023-01-31T04:44:48.775Z,5.80
2023-01-31T04:48:51.536Z,5.15
2023-01-31T04:52:54.263Z,5.40
2023-01-31T04:56:57.426Z,5.13
2023-01-31T05:01:00.334Z,4.20
2023-01-31T05:05:04.026Z,4.40
2023-01-31T05:09:07.871Z,4.20
2023-01-31T05:13:11.700Z,4.60
2023-01-31T05:17:14.646Z,4.55
2023-01-31T05:21:17.508Z,4.90
2023-01-31T05:25:20.815Z,3.85
2023-01-31T05:29:24.224Z,5.20
2023-01-31T05:33:29.275Z,4.82
2023-01-31T05:37:33.003Z,5.35
2023-01-31T05:41:36.148Z,5.43
2023-01-31T05:45:38.943Z,5.80
2023-01-31T05:49:41.730Z,6.28
2023-01-31T05:53:44.512Z,5.85
2023-01-31T05:57:47.500Z,5.10
2023-01-31T06:01:50.521Z,4.90
2023-01-31T06:05:53.952Z,5.05
2023-01-31T06:09:56.897Z,5.47
2023-01-31T06:13:59.812Z,5.22
2023-01-31T06:18:02.764Z,5.65
2023-01-31T06:22:05.865Z,6.85
2023-01-31T06:26:09.193Z,6.22
2023-01-31T06:30:12.670Z,6.55
2023-01-31T06:34:15.778Z,5.53
2023-01-31T06:38:18.611Z,5.30
2023-01-31T06:42:21.525Z,6.90
2023-01-31T06:46:24.973Z,6.50
2023-01-31T06:50:27.779Z,7.03
2023-01-31T06:54:30.581Z,8.60
2023-01-31T06:58:33.945Z,9.18
2023-01-31T07:02:36.754Z,9.70
2023-01-31T07:06:39.667Z,8.93
2023-01-31T07:10:42.487Z,8.65
2023-01-31T07:14:45.218Z,8.35
2023-01-31T07:18:48.267Z,8.25
2023-01-31T07:22:56.751Z,7.72
2023-01-31T07:27:01.491Z,6.35
2023-01-31T07:31:11.074Z,6.50
2023-01-31T07:35:14.157Z,12.52
2023-01-31T07:39:17.193Z,9.38
2023-01-31T07:43:21.081Z,9.65
2023-01-31T07:47:23.899Z,10.60
2023-01-31T07:51:26.962Z,11.18
2023-01-31T07:55:29.863Z,9.30
2023-01-31T07:59:33.232Z,9.65
2023-01-31T08:03:37.129Z,14.75
2023-01-31T08:07:39.943Z,14.25
2023-01-31T08:11:42.820Z,11.85
2023-01-31T08:15:45.582Z,10.50
2023-01-31T08:19:48.355Z,8.73
2023-01-31T08:23:51.248Z,10.38
2023-01-31T08:27:54.267Z,7.63
2023-01-31T08:31:57.280Z,9.00
2023-01-31T08:36:15.500Z,9.27
2023-01-31T08:40:18.549Z,7.53
2023-01-31T08:44:21.542Z,7.82
2023-01-31T08:48:24.548Z,9.02
2023-01-31T08:52:27.328Z,8.35
2023-01-31T08:56:30.305Z,5.25
2023-01-31T09:00:33.731Z,5.90
2023-01-31T09:04:36.464Z,5.88
2023-01-31T09:08:39.172Z,5.72
2023-01-31T09:12:42.069Z,6.68
2023-01-31T09:16:46.780Z,6.20
2023-01-31T09:20:49.740Z,6.18
2023-01-31T09:24:52.520Z,5.55
2023-01-31T09:28:58.048Z,5.72
2023-01-31T09:33:01.745Z,5.50
2023-01-31T09:37:04.700Z,6.72
2023-01-31T09:41:22.948Z,6.00
2023-01-31T09:45:34.462Z,5.57
2023-01-31T09:49:50.342Z,6.35
2023-01-31T09:53:55.852Z,6.33
2023-01-31T09:58:08.248Z,7.82
2023-01-31T10:02:37.422Z,11.05
2023-01-31T10:06:47.705Z,9.90
2023-01-31T10:10:59.085Z,8.90
2023-01-31T10:15:22.627Z,8.60
2023-01-31T10:19:32.887Z,7.82
2023-01-31T10:24:10.699Z,10.95
2023-01-31T10:28:47.627Z,8.02
2023-01-31T10:33:04.089Z,13.40
2023-01-31T10:37:32.918Z,7.15
2023-01-31T10:41:43.698Z,6.70
2023-01-31T10:45:46.653Z,6.00
2023-01-31T10:49:51.580Z,7.38
2023-01-31T10:54:03.552Z,5.85
2023-01-31T10:58:13.587Z,7.20
2023-01-31T11:02:25.004Z,5.78
2023-01-31T11:06:28.355Z,5.53
2023-01-31T11:10:32.755Z,6.70
2023-01-31T11:14:36.763Z,5.50
2023-01-31T11:18:51.585Z,5.18
2023-01-31T11:22:56.041Z,4.93
2023-01-31T11:27:02.063Z,4.72
2023-01-31T11:31:09.959Z,3.58
2023-01-31T11:35:15.783Z,3.78
2023-01-31T11:39:28.361Z,3.53
2023-01-31T11:43:31.458Z,4.10
